Time;durP1;ratioP1;P1;durP2;ratioP2;P2;SDS_P1;SDS_P2;PMS_P1;PMS_P2;Temp;Humidity;BMP_temperature;BMP_pressure;BME280_temperature;BME280_humidity;BME280_pressure;Samples;Min_cycle;Max_cycle;Signal;HPM_P1;HPM_P2
2021/05/06 00:34:16;;;;;;;5.70;2.00;;;4.90;99.90;;;5.76;100.00;97557.69;5126853;27;20489;-79
2021/05/06 00:36:44;;;;;;;2.20;1.47;;;4.90;99.90;;;5.74;100.00;97554.47;5126105;27;20821;-80
2021/05/06 00:39:15;;;;;;;3.70;1.70;;;4.90;99.90;;;5.76;100.00;97559.50;5127776;27;21281;-80
2021/05/06 00:41:53;;;;;;;5.03;2.30;;;4.90;99.90;;;5.77;100.00;97553.31;5123350;27;20466;-80
2021/05/06 00:45:02;;;;;;;2.73;1.70;;;4.90;99.90;;;5.78;100.00;97552.34;5117548;27;20520;-79
2021/05/06 00:56:11;;;;;;;1.40;1.30;;;4.50;99.90;;;5.29;100.00;97544.75;5123482;27;20942;-80
2021/05/06 01:04:29;;;;;;;12.53;1.80;;;4.40;99.90;;;5.18;100.00;97532.13;5129441;27;20465;-80
2021/05/06 01:07:06;;;;;;;2.43;1.50;;;4.30;99.90;;;5.03;100.00;97526.81;5122299;27;20894;-79
2021/05/06 01:09:36;;;;;;;1.73;1.43;;;4.20;99.90;;;4.92;100.00;97536.72;5125168;27;20906;-79
2021/05/06 01:12:06;;;;;;;2.03;1.73;;;4.10;99.90;;;5.05;100.00;97531.84;5126815;27;20442;-80
2021/05/06 01:14:34;;;;;;;1.57;1.47;;;4.20;99.90;;;5.06;100.00;97528.28;5124368;27;20469;-80
2021/05/06 01:17:02;;;;;;;3.93;2.20;;;4.20;99.90;;;5.01;100.00;97535.72;5127794;27;20438;-79
2021/05/06 01:19:29;;;;;;;3.27;1.93;;;4.10;99.90;;;4.84;100.00;97526.38;5127934;27;20698;-79
2021/05/06 01:21:58;;;;;;;3.13;1.93;;;3.90;99.90;;;4.89;100.00;97526.69;5125518;27;20476;-80
2021/05/06 01:24:26;;;;;;;6.30;1.73;;;4.00;99.90;;;4.80;100.00;97528.47;5129318;27;21041;-79
2021/05/06 01:27:00;;;;;;;2.90;1.70;;;3.90;99.90;;;4.77;100.00;97534.00;5123039;27;20536;-79
2021/05/06 01:29:30;;;;;;;3.77;2.00;;;3.90;99.90;;;4.76;100.00;97532.38;5127393;27;20562;-79
2021/05/06 01:32:08;;;;;;;2.80;2.13;;;3.90;99.90;;;4.71;100.00;97523.47;5123789;27;20468;-80
2021/05/06 01:34:37;;;;;;;3.03;2.10;;;3.90;99.90;;;4.65;100.00;97529.31;5128853;27;20459;-79
2021/05/06 01:37:10;;;;;;;2.23;1.90;;;3.80;99.90;;;4.54;100.00;97526.09;5126351;27;20460;-80
2021/05/06 01:39:54;;;;;;;13.40;2.43;;;3.70;99.90;;;4.64;100.00;97517.34;5122459;27;20504;-79
2021/05/06 01:42:23;;;;;;;3.00;2.00;;;3.80;99.90;;;4.63;100.00;97515.69;5127970;27;20460;-80
2021/05/06 01:45:30;;;;;;;4.77;1.90;;;3.80;99.90;;;4.54;100.00;97517.50;5130229;27;20796;-80
2021/05/06 01:48:02;;;;;;;3.73;2.63;;;3.70;99.90;;;4.45;100.00;97523.63;5124998;27;20963;-80
2021/05/06 01:51:06;;;;;;;2.23;2.00;;;3.60;99.90;;;4.34;100.00;97524.75;5130239;27;20467;-80
2021/05/06 01:59:09;;;;;;;2.20;1.97;;;3.70;99.90;;;4.36;100.00;97522.03;5126756;27;20460;-79
2021/05/06 02:01:36;;;;;;;3.17;2.27;;;3.50;99.90;;;4.37;100.00;97516.66;5129966;27;20515;-80
2021/05/06 02:04:05;;;;;;;3.20;2.40;;;3.50;99.90;;;4.38;100.00;97512.31;5127942;27;20475;-80
2021/05/06 02:06:33;;;;;;;3.90;2.23;;;3.50;99.90;;;4.36;100.00;97509.91;5128510;27;20463;-80
2021/05/06 02:09:04;;;;;;;7.43;2.37;;;3.50;99.90;;;4.26;100.00;97506.66;5127742;27;20831;-80
2021/05/06 02:11:32;;;;;;;2.90;2.23;;;3.40;99.90;;;4.22;100.00;97518.28;5129375;27;20473;-79
2021/05/06 02:14:00;;;;;;;5.50;2.70;;;3.30;99.90;;;4.15;100.00;97511.31;5122301;27;20457;-79
2021/05/06 02:16:33;;;;;;;3.00;2.60;;;3.30;99.90;;;4.30;100.00;97504.56;5124974;27;20464;-80
2021/05/06 02:19:03;;;;;;;4.00;2.03;;;3.40;99.90;;;4.35;100.00;97505.69;5128551;27;20468;-79
2021/05/06 02:21:31;;;;;;;3.50;2.17;;;3.50;99.90;;;4.40;100.00;97506.03;5123843;27;20450;-79
2021/05/06 02:23:58;;;;;;;2.67;2.47;;;3.60;99.90;;;4.42;100.00;97496.31;5125537;27;20453;-80
2021/05/06 02:26:27;;;;;;;4.60;2.13;;;3.50;99.90;;;4.40;100.00;97495.66;5124425;27;20488;-79
2021/05/06 02:28:55;;;;;;;3.50;2.30;;;3.60;99.90;;;4.38;100.00;97497.59;5129884;27;20502;-79
2021/05/06 02:31:22;;;;;;;3.97;2.47;;;3.60;99.90;;;4.31;100.00;97491.44;5126376;27;20465;-79
2021/05/06 02:33:50;;;;;;;4.37;2.40;;;3.50;99.90;;;4.37;100.00;97485.63;5124560;27;20455;-80
2021/05/06 02:36:18;;;;;;;4.67;2.53;;;3.50;99.90;;;4.46;100.00;97484.66;5116577;27;20460;-80
2021/05/06 02:38:45;;;;;;;4.87;2.73;;;3.60;99.90;;;4.43;100.00;97484.16;5125940;27;20451;-80
2021/05/06 02:41:13;;;;;;;2.83;2.57;;;3.60;99.90;;;4.56;100.00;97477.53;5125564;27;20470;-80
2021/05/06 02:43:41;;;;;;;3.73;2.40;;;3.80;99.90;;;4.66;100.00;97474.75;5126645;27;20847;-79
2021/05/06 02:46:09;;;;;;;4.07;2.40;;;4.00;99.90;;;4.60;100.00;97479.78;5129582;27;20488;-80
2021/05/06 02:48:37;;;;;;;3.30;2.30;;;3.90;99.90;;;4.60;100.00;97466.84;5120468;27;20485;-80
2021/05/06 02:51:05;;;;;;;2.63;2.33;;;3.80;99.90;;;4.65;100.00;97469.75;5121574;27;20447;-80
2021/05/06 02:53:37;;;;;;;6.53;3.10;;;3.80;99.90;;;4.74;100.00;97468.75;5118448;27;20464;-80
2021/05/06 02:56:10;;;;;;;6.43;3.00;;;3.90;99.90;;;4.80;100.00;97473.28;5123633;27;20513;-80
2021/05/06 02:58:51;;;;;;;2.00;1.90;;;4.00;99.90;;;4.83;100.00;97470.34;5122289;27;20465;-80
2021/05/06 03:04:07;;;;;;;4.70;2.70;;;4.00;99.90;;;4.88;100.00;97468.91;5126513;27;20542;-80
2021/05/06 03:06:42;;;;;;;9.33;2.80;;;4.00;99.90;;;4.89;100.00;97464.53;5117241;27;20463;-79
2021/05/06 03:09:21;;;;;;;4.57;2.93;;;4.10;99.90;;;4.89;100.00;97464.53;5127525;27;20570;-80
2021/05/06 03:11:55;;;;;;;3.50;2.80;;;4.10;99.90;;;4.95;100.00;97464.69;5124654;27;20462;-80
2021/05/06 03:14:42;;;;;;;2.90;2.60;;;4.10;99.90;;;4.92;100.00;97465.00;5127485;27;20455;-80
2021/05/06 03:22:43;;;;;;;3.13;2.20;;;4.20;99.90;;;5.06;100.00;97455.75;5118086;27;20453;-80
2021/05/06 03:25:15;;;;;;;4.00;2.80;;;4.30;99.90;;;5.08;100.00;97458.97;5117935;27;20989;-80
2021/05/06 03:27:49;;;;;;;9.70;2.60;;;4.30;99.90;;;5.10;100.00;97451.03;5116853;27;21166;-80
2021/05/06 03:41:31;;;;;;;4.27;3.20;;;4.40;99.90;;;5.22;100.00;97444.50;5122650;27;20476;-80
2021/05/06 03:41:47;;;;;;;4.20;2.63;;;4.50;99.90;;;5.22;100.00;97440.13;5125851;27;20464;-81
2021/05/06 03:44:31;;;;;;;6.07;3.27;;;4.40;99.90;;;5.25;100.00;97437.19;5123475;27;20485;-80
2021/05/06 03:50:35;;;;;;;7.13;2.80;;;4.50;99.90;;;5.26;100.00;97430.22;5105013;27;20585;-81
2021/05/06 04:18:08;;;;;;;4.70;2.63;;;4.50;99.90;;;5.40;100.00;97422.56;5129200;27;20465;-78
2021/05/06 04:26:19;;;;;;;7.23;3.97;;;4.70;99.90;;;5.46;100.00;97424.47;5120562;27;20469;-78
2021/05/06 04:37:01;;;;;;;2.33;2.03;;;4.80;99.90;;;5.57;100.00;97421.50;5116600;28;20484;-78
2021/05/06 04:39:36;;;;;;;2.70;2.33;;;4.80;99.90;;;5.58;100.00;97415.34;5126215;27;20451;-78
2021/05/06 04:45:18;;;;;;;8.73;2.80;;;4.90;99.90;;;5.62;100.00;97420.97;5084887;28;20829;-78
2021/05/06 04:59:23;;;;;;;5.43;2.13;;;5.10;99.90;;;5.80;100.00;97418.09;5086642;28;20939;-78
2021/05/06 05:04:38;;;;;;;7.17;2.70;;;5.00;99.90;;;5.81;100.00;97414.53;5125286;27;20458;-78
2021/05/06 05:07:12;;;;;;;5.70;2.30;;;5.10;99.90;;;5.86;100.00;97417.44;5119001;28;20504;-78
2021/05/06 05:12:41;;;;;;;3.13;2.47;;;5.20;99.90;;;5.91;100.00;97415.13;5106347;27;20934;-78
2021/05/06 05:18:00;;;;;;;6.83;1.90;;;5.30;99.90;;;6.02;100.00;97409.53;5090074;27;20449;-79
2021/05/06 05:20:38;;;;;;;3.00;2.30;;;5.40;99.90;;;6.02;100.00;97417.31;5134848;27;20462;-78
2021/05/06 05:23:28;;;;;;;3.10;2.10;;;5.40;99.90;;;6.01;100.00;97416.50;5133419;27;20837;-78
2021/05/06 05:26:01;;;;;;;2.80;1.80;;;5.30;99.90;;;6.01;100.00;97421.69;5134019;27;20470;-78
2021/05/06 05:28:30;;;;;;;6.57;2.33;;;5.30;99.90;;;6.05;100.00;97422.97;5134052;27;21007;-78
2021/05/06 05:30:58;;;;;;;5.83;2.57;;;5.30;99.90;;;6.08;100.00;97422.63;5133757;27;20475;-78
2021/05/06 05:33:27;;;;;;;7.20;2.10;;;5.50;99.90;;;6.10;100.00;97424.25;5134556;27;20948;-78
2021/05/06 05:36:03;;;;;;;4.43;2.40;;;5.50;99.90;;;6.15;100.00;97422.72;5134007;27;20455;-78
2021/05/06 05:38:38;;;;;;;6.30;2.33;;;5.50;99.90;;;6.21;100.00;97431.63;5134413;27;20488;-78
2021/05/06 05:41:26;;;;;;;9.03;2.10;;;5.50;99.90;;;6.21;100.00;97429.03;5134005;27;20444;-78
2021/05/06 05:44:11;;;;;;;2.33;1.90;;;5.60;99.90;;;6.25;100.00;97428.50;5122699;27;21212;-79
2021/05/06 05:47:18;;;;;;;2.30;1.60;;;5.60;99.90;;;6.19;100.00;97428.38;5134035;27;20462;-78
2021/05/06 05:55:17;;;;;;;3.50;2.10;;;5.60;99.90;;;6.28;100.00;97412.56;5133931;27;20447;-78
2021/05/06 05:57:48;;;;;;;2.87;1.77;;;5.60;99.90;;;6.32;100.00;97410.41;5134146;27;20500;-78
2021/05/06 06:00:18;;;;;;;3.53;2.30;;;5.70;99.90;;;6.33;100.00;97409.44;5133156;27;20456;-78
2021/05/06 06:02:46;;;;;;;3.33;1.90;;;5.70;99.90;;;6.26;100.00;97404.16;5134136;27;20455;-78
2021/05/06 06:05:14;;;;;;;3.53;1.70;;;5.60;99.90;;;6.24;100.00;97418.28;5131084;27;20468;-78
2021/05/06 06:07:42;;;;;;;2.73;1.97;;;5.50;99.90;;;6.18;100.00;97414.59;5134077;27;20444;-78
2021/05/06 06:10:10;;;;;;;2.30;2.10;;;5.40;99.90;;;6.32;100.00;97413.81;5132852;27;20504;-78
2021/05/06 06:12:38;;;;;;;1.97;1.77;;;5.60;99.90;;;6.30;100.00;97409.78;5125873;27;20933;-78
2021/05/06 06:15:11;;;;;;;3.10;2.00;;;5.60;99.90;;;6.32;100.00;97402.63;5126155;27;20525;-78
2021/05/06 06:17:43;;;;;;;5.10;2.00;;;5.60;99.90;;;6.45;100.00;97397.66;5126708;27;20968;-78
2021/05/06 06:20:12;;;;;;;5.87;1.80;;;5.80;99.90;;;6.45;100.00;97395.88;5121793;27;20445;-78
2021/05/06 06:22:40;;;;;;;7.70;2.00;;;5.80;99.90;;;6.50;100.00;97390.13;5133310;27;20947;-78
2021/05/06 06:25:10;;;;;;;2.30;1.80;;;5.90;99.90;;;6.50;100.00;97398.72;5133231;27;20536;-78
2021/05/06 06:27:37;;;;;;;4.70;2.30;;;5.90;99.90;;;6.51;100.00;97402.94;5124836;27;20444;-79
2021/05/06 06:30:10;;;;;;;5.27;2.10;;;5.90;99.90;;;6.56;100.00;97411.00;5123529;27;20507;-78
2021/05/06 06:32:39;;;;;;;1.57;1.47;;;5.90;99.90;;;6.56;100.00;97408.41;5133442;27;20579;-79
2021/05/06 06:35:08;;;;;;;7.27;2.40;;;5.90;99.90;;;6.58;100.00;97406.44;5133260;27;20851;-78
2021/05/06 06:37:36;;;;;;;2.70;1.90;;;5.90;99.90;;;6.59;100.00;97402.84;5132336;27;20790;-78
2021/05/06 06:40:05;;;;;;;2.50;1.80;;;5.90;99.90;;;6.55;100.00;97396.44;5133101;27;20444;-78
2021/05/06 06:42:33;;;;;;;4.10;1.83;;;5.80;99.90;;;6.67;100.00;97395.97;5114573;27;20445;-78
2021/05/06 06:45:01;;;;;;;2.10;1.63;;;6.00;99.90;;;6.70;100.00;97390.44;5125924;27;20548;-78
2021/05/06 06:47:29;;;;;;;3.23;1.70;;;6.00;99.90;;;6.73;100.00;97390.88;5124943;27;20528;-78
2021/05/06 06:49:57;;;;;;;3.77;2.17;;;6.00;99.90;;;6.74;100.00;97383.88;5127390;27;20588;-78
2021/05/06 06:52:25;;;;;;;2.23;1.83;;;6.00;99.90;;;6.80;100.00;97380.56;5123203;27;20453;-78
2021/05/06 06:54:52;;;;;;;2.87;2.00;;;6.10;99.90;;;6.86;100.00;97374.66;5132846;27;20441;-79
2021/05/06 06:57:20;;;;;;;3.13;1.70;;;6.10;99.90;;;6.92;100.00;97379.13;5131522;27;20448;-79
2021/05/06 06:59:48;;;;;;;5.37;2.03;;;6.20;99.90;;;6.90;100.00;97375.91;5124030;27;20482;-79
2021/05/06 07:02:17;;;;;;;2.03;1.67;;;6.10;99.90;;;6.97;100.00;97382.00;5132684;27;20441;-78
2021/05/06 07:04:44;;;;;;;5.70;1.77;;;6.20;99.90;;;7.02;100.00;97377.06;5132064;27;20564;-78
2021/05/06 07:07:14;;;;;;;7.87;2.23;;;6.30;99.90;;;7.13;100.00;97381.78;5132389;27;20945;-79
2021/05/06 07:09:42;;;;;;;6.70;2.57;;;6.40;99.90;;;7.07;100.00;97380.75;5132337;27;20488;-78
2021/05/06 07:12:10;;;;;;;2.33;1.70;;;6.30;99.90;;;7.15;100.00;97373.81;5131966;27;20438;-79
2021/05/06 07:14:38;;;;;;;4.27;2.10;;;6.50;99.90;;;7.21;100.00;97375.69;5131132;27;20460;-78
2021/05/06 07:17:12;;;;;;;6.10;1.70;;;6.50;99.90;;;7.20;100.00;97374.06;5123710;27;20451;-79
2021/05/06 07:19:40;;;;;;;3.30;1.80;;;6.50;99.90;;;7.25;100.00;97377.75;5127317;27;20446;-78
2021/05/06 07:22:08;;;;;;;5.50;1.87;;;6.70;99.90;;;7.32;100.00;97380.44;5124183;27;20441;-78
2021/05/06 07:24:39;;;;;;;2.20;2.00;;;6.70;99.90;;;7.34;100.00;97379.25;5125928;27;20500;-78
2021/05/06 07:27:10;;;;;;;3.50;2.00;;;6.70;99.90;;;7.33;100.00;97375.03;5125437;27;20475;-78
2021/05/06 07:29:39;;;;;;;3.87;1.77;;;6.70;99.90;;;7.30;100.00;97372.78;5128191;27;20538;-79
2021/05/06 07:32:09;;;;;;;2.70;1.93;;;6.70;99.90;;;7.29;100.00;97376.38;5130141;27;20540;-78
2021/05/06 07:34:39;;;;;;;2.00;1.80;;;6.60;99.90;;;7.24;100.00;97383.13;5132146;27;20856;-79
2021/05/06 07:37:09;;;;;;;3.40;2.23;;;6.50;99.90;;;7.23;100.00;97376.31;5129584;27;20433;-78
2021/05/06 07:39:39;;;;;;;2.50;1.80;;;6.50;99.90;;;7.27;100.00;97372.34;5121750;27;20448;-79
2021/05/06 07:42:09;;;;;;;2.23;2.00;;;6.60;99.90;;;7.34;100.00;97376.66;5120873;27;20468;-78
2021/05/06 07:44:38;;;;;;;8.47;2.37;;;6.70;99.90;;;7.36;100.00;97372.06;5131618;27;20546;-78
2021/05/06 07:47:11;;;;;;;4.47;1.90;;;6.70;99.90;;;7.33;100.00;97371.63;5126487;27;20473;-79
2021/05/06 07:49:45;;;;;;;2.50;1.70;;;6.70;99.90;;;7.38;100.00;97375.28;5130909;27;20994;-79
2021/05/06 07:52:19;;;;;;;4.77;2.03;;;6.70;99.90;;;7.30;100.00;97367.59;5125351;27;20816;-79
2021/05/06 07:54:56;;;;;;;2.90;2.00;;;6.60;99.90;;;7.34;100.00;97370.63;5131914;27;20449;-78
2021/05/06 07:57:24;;;;;;;3.20;1.77;;;6.70;99.90;;;7.31;100.00;97374.41;5131950;28;20744;-78
2021/05/06 07:59:53;;;;;;;2.20;2.00;;;6.60;99.90;;;7.26;100.00;97368.94;5131758;27;20449;-79
2021/05/06 08:02:21;;;;;;;6.03;2.13;;;6.50;99.90;;;7.36;100.00;97371.25;5132111;27;20781;-78
2021/05/06 08:04:49;;;;;;;8.53;2.40;;;6.70;99.90;;;7.46;100.00;97377.00;5123624;27;20474;-78
2021/05/06 08:07:17;;;;;;;2.80;1.80;;;6.80;99.90;;;7.45;100.00;97370.97;5124502;28;20444;-79
2021/05/06 08:09:45;;;;;;;2.50;2.27;;;6.80;99.90;;;7.53;100.00;97365.63;5131493;28;20497;-78
2021/05/06 08:12:14;;;;;;;3.10;2.13;;;6.80;99.90;;;7.57;100.00;97363.47;5129719;28;20506;-79
2021/05/06 08:14:42;;;;;;;4.50;2.07;;;6.90;99.90;;;7.54;100.00;97353.44;5128205;28;20921;-79
2021/05/06 08:17:09;;;;;;;3.83;2.27;;;6.80;99.90;;;7.65;100.00;97355.56;5121497;27;20447;-79
2021/05/06 08:19:40;;;;;;;5.23;2.20;;;6.90;99.90;;;7.69;100.00;97358.59;5128693;28;20476;-79
2021/05/06 08:22:07;;;;;;;4.03;2.57;;;7.00;99.90;;;7.75;100.00;97353.44;5131595;27;20449;-79
2021/05/06 08:24:35;;;;;;;3.27;2.07;;;7.10;99.90;;;7.83;100.00;97358.53;5128329;27;20469;-78
2021/05/06 08:27:08;;;;;;;3.00;1.80;;;7.20;99.90;;;7.90;100.00;97358.59;5130703;27;20454;-79
2021/05/06 08:29:37;;;;;;;5.70;2.40;;;7.30;99.90;;;7.91;100.00;97355.00;5131251;27;20485;-78
2021/05/06 08:32:06;;;;;;;2.33;2.00;;;7.30;99.90;;;7.88;100.00;97350.19;5131461;28;20489;-78
2021/05/06 08:34:34;;;;;;;5.03;2.50;;;7.20;99.90;;;7.96;100.00;97343.03;5129517;28;20492;-79
2021/05/06 08:37:02;;;;;;;4.90;2.30;;;7.30;99.90;;;8.04;100.00;97339.50;5122215;27;20446;-79
2021/05/06 08:39:29;;;;;;;2.53;1.70;;;7.30;99.90;;;8.14;100.00;97336.56;5115636;28;20443;-78
2021/05/06 08:41:59;;;;;;;3.90;1.93;;;7.50;99.90;;;8.16;100.00;97337.97;5126429;27;20437;-78
2021/05/06 08:44:30;;;;;;;3.53;2.17;;;7.50;99.90;;;8.21;100.00;97340.81;5133788;27;20902;-79
2021/05/06 08:47:05;;;;;;;5.47;2.43;;;7.50;99.90;;;8.34;100.00;97335.72;5132564;27;20445;-79
2021/05/06 08:49:35;;;;;;;4.17;2.60;;;7.70;99.90;;;8.30;100.00;97338.91;5135165;27;20956;-78
2021/05/06 08:52:07;;;;;;;3.87;1.80;;;7.60;99.90;;;8.34;100.00;97329.72;5117868;27;20495;-78
2021/05/06 08:54:35;;;;;;;4.37;2.13;;;7.70;99.90;;;8.33;100.00;97343.75;5126367;27;20456;-79
2021/05/06 08:57:04;;;;;;;4.17;1.70;;;7.70;99.90;;;8.29;100.00;97343.31;5131897;27;20453;-80
2021/05/06 08:59:32;;;;;;;2.30;1.70;;;7.60;99.90;;;8.42;100.00;97338.19;5135468;27;20442;-79
2021/05/06 09:02:00;;;;;;;2.30;1.77;;;7.70;99.90;;;8.42;100.00;97337.38;5134695;27;20437;-79
2021/05/06 09:04:30;;;;;;;6.80;2.23;;;7.70;99.90;;;8.51;100.00;97344.84;5126436;27;20454;-79
2021/05/06 09:06:59;;;;;;;5.83;1.63;;;7.90;99.90;;;8.45;100.00;97347.44;5118968;27;20461;-78
2021/05/06 09:09:30;;;;;;;3.77;2.00;;;7.70;99.90;;;8.49;100.00;97338.25;5134256;27;20500;-79
2021/05/06 09:12:00;;;;;;;1.93;1.73;;;7.80;99.90;;;8.60;100.00;97345.53;5131122;27;20449;-78
2021/05/06 09:14:40;;;;;;;6.20;2.10;;;7.90;99.90;;;8.54;100.00;97341.06;5128249;27;20943;-78
2021/05/06 09:17:26;;;;;;;5.67;2.00;;;7.80;99.90;;;8.53;100.00;97334.25;5124241;27;20456;-78
2021/05/06 09:20:09;;;;;;;5.03;2.03;;;7.80;99.90;;;8.56;100.00;97339.09;5134659;27;20434;-79
2021/05/06 09:22:40;;;;;;;3.80;2.10;;;7.90;99.90;;;8.56;100.00;97339.88;5134785;27;20449;-79
2021/05/06 09:25:29;;;;;;;3.17;1.77;;;7.80;99.90;;;8.63;100.00;97337.31;5134502;27;20469;-79
2021/05/06 09:28:13;;;;;;;3.40;2.30;;;7.90;99.90;;;8.75;100.00;97327.13;5134319;27;20456;-79
2021/05/06 09:30:52;;;;;;;3.50;2.00;;;8.10;99.90;;;8.80;100.00;97320.38;5128831;27;20496;-78
2021/05/06 09:33:32;;;;;;;2.67;1.70;;;8.20;99.90;;;8.90;100.00;97326.03;5133802;27;20777;-78
2021/05/06 09:36:12;;;;;;;4.23;2.63;;;8.30;99.90;;;8.98;100.00;97322.44;5133535;27;20906;-79
2021/05/06 09:38:43;;;;;;;3.77;2.10;;;8.40;99.90;;;9.06;100.00;97317.03;5134241;27;20482;-79
2021/05/06 09:41:13;;;;;;;8.40;2.47;;;8.40;99.90;;;9.13;100.00;97317.09;5132927;27;20460;-79
2021/05/06 09:43:43;;;;;;;3.93;2.30;;;8.50;99.90;;;9.18;100.00;97310.28;5133155;27;20476;-79
2021/05/06 09:46:35;;;;;;;2.80;2.03;;;8.50;99.90;;;9.26;100.00;97312.72;5122723;27;20444;-79
2021/05/06 09:49:07;;;;;;;2.93;1.93;;;8.60;99.90;;;9.19;100.00;97309.28;5131347;27;20487;-79
2021/05/06 09:51:41;;;;;;;6.17;2.53;;;8.50;99.90;;;9.15;100.00;97305.47;5130436;27;20449;-78
2021/05/06 09:54:12;;;;;;;4.60;2.57;;;8.50;99.90;;;9.13;100.00;97299.63;5132303;27;20936;-78
2021/05/06 09:56:41;;;;;;;2.40;2.00;;;8.40;99.90;;;9.14;100.00;97296.03;5134072;27;20933;-79
2021/05/06 09:59:10;;;;;;;12.63;2.60;;;8.40;99.90;;;9.21;100.00;97288.22;5122088;27;20815;-79
2021/05/06 10:01:41;;;;;;;3.23;2.13;;;8.50;99.90;;;9.20;100.00;97289.22;5133500;27;20810;-79
2021/05/06 10:04:17;;;;;;;3.07;2.13;;;8.50;99.90;;;9.19;100.00;97285.81;5131622;27;20830;-79
2021/05/06 10:07:16;;;;;;;8.33;3.00;;;8.50;99.90;;;9.14;100.00;97287.38;5119209;27;20967;-79
2021/05/06 10:09:56;;;;;;;4.77;2.50;;;8.40;99.90;;;9.29;100.00;97278.41;5133508;27;20489;-79
2021/05/06 10:12:27;;;;;;;6.03;2.60;;;8.70;99.90;;;9.40;100.00;97279.63;5124353;27;20465;-78
2021/05/06 10:14:56;;;;;;;3.40;2.40;;;8.80;99.90;;;9.44;100.00;97276.41;5133278;27;20457;-79
2021/05/06 10:17:27;;;;;;;3.90;3.50;;;8.80;99.90;;;9.57;100.00;97265.22;5133880;27;20438;-78
2021/05/06 10:19:58;;;;;;;5.13;3.63;;;9.00;99.90;;;9.67;100.00;97262.19;5133426;27;20470;-79
2021/05/06 10:22:28;;;;;;;11.27;4.30;;;9.10;99.90;;;9.75;100.00;97257.59;5131202;27;20450;-79
2021/05/06 10:25:01;;;;;;;6.63;4.13;;;9.20;99.90;;;9.69;100.00;97263.59;5133457;27;20540;-79
2021/05/06 10:27:29;;;;;;;3.23;2.60;;;9.10;99.90;;;9.69;100.00;97262.78;5132086;27;20844;-79
2021/05/06 10:29:57;;;;;;;5.37;3.30;;;9.00;99.90;;;9.75;100.00;97257.59;5133351;27;20495;-79
2021/05/06 10:32:27;;;;;;;5.37;2.97;;;9.10;99.90;;;9.82;100.00;97258.34;5132879;27;20450;-77
2021/05/06 10:34:59;;;;;;;4.17;2.80;;;9.20;99.90;;;9.67;98.30;97251.75;5123352;27;20532;-77
2021/05/06 10:37:30;;;;;;;7.23;3.40;;;8.90;99.90;;;9.72;100.00;97257.19;5132746;27;20450;-78
2021/05/06 10:39:58;;;;;;;6.47;3.83;;;9.00;99.90;;;9.74;99.75;97252.56;5120880;27;20508;-78
2021/05/06 10:42:33;;;;;;;3.83;3.33;;;9.00;99.90;;;9.59;99.90;97243.13;5132146;27;20529;-79
2021/05/06 10:45:24;;;;;;;5.43;3.80;;;8.90;99.90;;;9.57;100.00;97250.34;5132713;27;20540;-79
2021/05/06 10:47:55;;;;;;;10.43;3.37;;;8.80;99.90;;;9.48;98.96;97240.28;5115005;27;20817;-78
2021/05/06 10:50:32;;;;;;;3.77;3.00;;;8.70;99.90;;;9.60;99.94;97249.13;5125733;27;20502;-79
2021/05/06 10:53:01;;;;;;;3.93;3.30;;;8.90;99.90;;;9.60;99.43;97223.84;5124921;27;20447;-78
2021/05/06 10:55:49;;;;;;;4.37;3.83;;;8.90;99.90;;;9.63;100.00;97221.81;5125103;27;20463;-79
2021/05/06 10:58:42;;;;;;;7.47;3.93;;;8.90;99.90;;;9.76;100.00;97216.59;5126935;27;20449;-78
2021/05/06 11:01:23;;;;;;;8.70;3.83;;;9.10;99.90;;;9.89;100.00;97227.06;5132706;27;20498;-80
2021/05/06 11:04:10;;;;;;;5.00;3.73;;;9.20;99.90;;;9.98;100.00;97231.03;5131143;27;20456;-79
2021/05/06 11:06:44;;;;;;;5.83;4.37;;;9.30;99.90;;;9.95;100.00;97236.69;5128115;27;20842;-79
2021/05/06 11:09:55;;;;;;;14.53;4.33;;;9.30;99.90;;;9.90;99.68;97215.56;5132378;27;20441;-79
2021/05/06 11:12:39;;;;;;;8.10;5.07;;;9.20;99.90;;;9.83;99.85;97205.16;5126166;27;20836;-79
2021/05/06 11:15:33;;;;;;;5.40;3.77;;;9.10;99.90;;;9.74;98.68;97202.94;5132292;27;20445;-79
2021/05/06 11:18:04;;;;;;;10.90;4.73;;;9.00;99.90;;;9.75;99.00;97199.34;5121113;27;20947;-79
2021/05/06 11:20:53;;;;;;;7.83;4.93;;;9.00;99.90;;;9.71;99.33;97200.75;5132483;27;20944;-79
2021/05/06 11:23:34;;;;;;;5.60;4.17;;;9.00;99.90;;;9.68;98.78;97188.91;5130861;27;20445;-79
2021/05/06 11:26:17;;;;;;;6.43;4.03;;;8.90;99.90;;;9.78;97.43;97185.88;5132002;27;21171;-79
2021/05/06 11:28:47;;;;;;;6.97;3.93;;;9.10;99.90;;;9.72;98.36;97181.47;5130908;27;20441;-79
2021/05/06 11:31:37;;;;;;;5.70;4.50;;;9.00;99.90;;;9.61;97.23;97180.28;5131620;27;20493;-79
2021/05/06 11:34:36;;;;;;;4.73;3.67;;;8.80;99.90;;;9.60;96.41;97166.44;5131482;27;20851;-78
2021/05/06 11:37:27;;;;;;;5.20;3.50;;;8.80;99.90;;;9.69;98.52;97168.81;5131581;27;20815;-79
2021/05/06 11:40:07;;;;;;;5.33;3.67;;;9.00;99.90;;;9.64;97.98;97166.81;5129265;27;20448;-79
2021/05/06 11:42:39;;;;;;;5.17;3.63;;;8.90;99.90;;;9.53;96.49;97159.59;5121148;27;20577;-79
2021/05/06 11:45:23;;;;;;;12.33;4.80;;;8.80;99.90;;;9.51;97.23;97157.19;5131176;27;20485;-79
2021/05/06 11:47:54;;;;;;;7.83;4.20;;;8.80;99.90;;;9.49;99.23;97153.97;5124699;27;20803;-79
2021/05/06 11:50:27;;;;;;;9.90;3.90;;;8.70;99.90;;;9.45;99.61;97144.94;5131014;27;20500;-80
2021/05/06 11:52:58;;;;;;;8.37;4.27;;;8.70;99.90;;;9.43;99.89;97139.16;5128883;27;20442;-80
2021/05/06 11:55:45;;;;;;;8.00;4.80;;;8.70;99.90;;;9.43;100.00;97136.53;5131963;27;20446;-80
2021/05/06 11:58:23;;;;;;;6.47;4.07;;;8.60;99.90;;;9.58;100.00;97137.09;5132041;27;20818;-80
2021/05/06 12:00:54;;;;;;;9.83;4.87;;;8.80;99.90;;;9.62;100.00;97132.28;5126229;28;20933;-79
2021/05/06 12:03:35;;;;;;;5.77;4.90;;;8.90;99.90;;;9.73;100.00;97136.06;5130846;27;20502;-80
2021/05/06 12:06:05;;;;;;;12.87;6.30;;;9.10;99.90;;;9.79;100.00;97109.94;5131620;28;20840;-80
2021/05/06 12:08:45;;;;;;;6.60;5.30;;;9.30;99.90;;;9.75;100.00;97115.81;5119040;27;20457;-79
2021/05/06 12:11:14;;;;;;;11.23;5.93;;;9.10;99.90;;;9.83;100.00;97120.78;5126387;28;20572;-79
2021/05/06 12:13:43;;;;;;;12.13;5.47;;;9.30;99.90;;;9.81;100.00;97112.38;5125032;28;20468;-80
2021/05/06 12:16:20;;;;;;;12.13;6.07;;;9.20;99.90;;;9.76;100.00;97096.50;5131308;28;20445;-79
2021/05/06 12:19:12;;;;;;;5.27;4.60;;;9.20;99.90;;;9.78;100.00;97092.69;5125965;27;20446;-79
2021/05/06 12:21:46;;;;;;;5.90;5.10;;;9.30;99.90;;;9.84;100.00;97096.28;5123533;27;20458;-80
2021/05/06 12:24:26;;;;;;;24.10;5.53;;;9.40;99.90;;;9.86;100.00;97089.84;5135552;27;20476;-79
2021/05/06 12:26:55;;;;;;;10.60;5.20;;;9.40;99.90;;;9.84;100.00;97089.25;5134379;27;20460;-79
2021/05/06 12:29:24;;;;;;;7.10;5.17;;;9.30;99.90;;;9.78;100.00;97084.88;5135162;27;20457;-80
2021/05/06 12:31:54;;;;;;;10.60;5.00;;;9.20;99.90;;;9.82;100.00;97085.25;5135946;27;20474;-79
2021/05/06 12:34:24;;;;;;;5.80;4.10;;;9.20;99.90;;;9.73;100.00;97091.69;5135050;27;20528;-80
2021/05/06 12:36:58;;;;;;;10.37;4.80;;;9.10;99.90;;;9.65;100.00;97074.44;5133750;27;20485;-79
2021/05/06 12:39:27;;;;;;;5.43;4.60;;;9.00;99.90;;;9.54;100.00;97072.50;5133034;27;20468;-80
2021/05/06 12:41:59;;;;;;;6.47;5.13;;;8.80;99.90;;;9.67;100.00;97059.41;5136000;27;20445;-79
2021/05/06 12:44:42;;;;;;;6.73;4.80;;;9.00;99.90;;;9.76;100.00;97065.19;5122498;27;20473;-80
2021/05/06 12:47:14;;;;;;;7.40;3.90;;;9.10;99.90;;;9.81;100.00;97054.94;5126841;27;20567;-80
2021/05/06 12:49:42;;;;;;;5.63;4.03;;;9.30;99.90;;;9.82;100.00;97048.72;5135088;27;20459;-80
2021/05/06 12:52:28;;;;;;;3.67;3.30;;;9.30;99.90;;;9.78;100.00;97043.09;5132341;27;20460;-80
2021/05/06 12:54:56;;;;;;;7.07;3.43;;;9.30;99.90;;;9.73;100.00;97049.94;5135222;27;20448;-80
2021/05/06 12:57:24;;;;;;;6.40;3.40;;;9.10;99.90;;;9.72;100.00;97048.34;5135032;27;20441;-80
2021/05/06 12:59:52;;;;;;;3.93;3.53;;;9.10;99.90;;;9.72;100.00;97053.56;5125313;27;20453;-79
2021/05/06 13:02:31;;;;;;;6.03;3.30;;;9.10;99.90;;;9.66;100.00;97039.50;5129529;27;20782;-80
2021/05/06 13:05:37;;;;;;;6.23;3.90;;;9.00;99.90;;;9.61;100.00;97042.72;5124110;27;20456;-80
2021/05/06 13:08:06;;;;;;;6.43;3.80;;;8.90;99.90;;;9.66;100.00;97029.06;5128710;27;20446;-79
2021/05/06 13:10:37;;;;;;;4.43;3.70;;;9.00;99.90;;;9.67;100.00;97029.88;5132960;27;20488;-79
2021/05/06 13:13:09;;;;;;;3.50;2.90;;;9.10;99.90;;;9.66;100.00;97023.03;5123173;27;20465;-79